sensor_id;sensor_type;location;lat;lon;timestamp;P1;durP1;ratioP1;P2;durP2;ratioP2
64641;SDS011;59936;51.490;5.436;2023-08-01T00:05:20;10.80;;;9.60;;
64641;SDS011;59936;51.490;5.436;2023-08-01T00:07:49;10.40;;;8.80;;
64641;SDS011;59936;51.490;5.436;2023-08-01T00:10:18;11.80;;;8.40;;
64641;SDS011;59936;51.490;5.436;2023-08-01T00:12:46;10.70;;;9.00;;
64641;SDS011;59936;51.490;5.436;2023-08-01T00:15:15;18.40;;;10.70;;
64641;SDS011;59936;51.490;5.436;2023-08-01T00:17:44;5.50;;;4.20;;
64641;SDS011;59936;51.490;5.436;2023-08-01T00:20:12;11.20;;;9.50;;
64641;SDS011;59936;51.490;5.436;2023-08-01T00:22:41;11.60;;;8.90;;
64641;SDS011;59936;51.490;5.436;2023-08-01T00:25:09;12.70;;;9.20;;
64641;SDS011;59936;51.490;5.436;2023-08-01T00:27:38;13.40;;;10.00;;
64641;SDS011;59936;51.490;5.436;2023-08-01T00:30:07;13.10;;;9.90;;
64641;SDS011;59936;51.490;5.436;2023-08-01T00:32:36;10.20;;;8.50;;
64641;SDS011;59936;51.490;5.436;2023-08-01T00:35:05;15.10;;;10.40;;
64641;SDS011;59936;51.490;5.436;2023-08-01T00:37:34;13.70;;;9.80;;
64641;SDS011;59936;51.490;5.436;2023-08-01T00:40:03;10.90;;;9.40;;
64641;SDS011;59936;51.490;5.436;2023-08-01T00:42:32;12.70;;;8.90;;
64641;SDS011;59936;51.490;5.436;2023-08-01T00:45:04;13.60;;;10.10;;
64641;SDS011;59936;51.490;5.436;2023-08-01T00:47:34;11.60;;;10.20;;
64641;SDS011;59936;51.490;5.436;2023-08-01T00:50:02;13.00;;;10.00;;
64641;SDS011;59936;51.490;5.436;2023-08-01T00:52:32;18.10;;;10.20;;
64641;SDS011;59936;51.490;5.436;2023-08-01T00:55:00;17.30;;;10.90;;
64641;SDS011;59936;51.490;5.436;2023-08-01T00:57:29;14.10;;;10.70;;
64641;SDS011;59936;51.490;5.436;2023-08-01T00:59:58;16.40;;;9.80;;
64641;SDS011;59936;51.490;5.436;2023-08-01T01:02:27;13.40;;;9.50;;
64641;SDS011;59936;51.490;5.436;2023-08-01T01:04:56;13.00;;;8.70;;
64641;SDS011;59936;51.490;5.436;2023-08-01T01:07:24;13.90;;;8.60;;
64641;SDS011;59936;51.490;5.436;2023-08-01T01:09:54;9.30;;;8.00;;
64641;SDS011;59936;51.490;5.436;2023-08-01T01:12:22;16.40;;;8.60;;
64641;SDS011;59936;51.490;5.436;2023-08-01T01:14:51;12.50;;;9.30;;
64641;SDS011;59936;51.490;5.436;2023-08-01T01:17:20;11.20;;;7.90;;
64641;SDS011;59936;51.490;5.436;2023-08-01T01:19:48;10.20;;;6.60;;
64641;SDS011;59936;51.490;5.436;2023-08-01T01:22:17;14.20;;;7.70;;
64641;SDS011;59936;51.490;5.436;2023-08-01T01:24:47;16.20;;;9.20;;
64641;SDS011;59936;51.490;5.436;2023-08-01T01:27:17;11.70;;;7.20;;
64641;SDS011;59936;51.490;5.436;2023-08-01T01:29:46;12.70;;;7.80;;
64641;SDS011;59936;51.490;5.436;2023-08-01T01:32:17;14.70;;;7.50;;
64641;SDS011;59936;51.490;5.436;2023-08-01T01:34:47;13.70;;;7.60;;
64641;SDS011;59936;51.490;5.436;2023-08-01T01:37:15;10.80;;;7.30;;
64641;SDS011;59936;51.490;5.436;2023-08-01T01:39:44;16.10;;;7.80;;
64641;SDS011;59936;51.490;5.436;2023-08-01T01:42:13;18.10;;;7.00;;
64641;SDS011;59936;51.490;5.436;2023-08-01T01:44:41;12.50;;;6.80;;
64641;SDS011;59936;51.490;5.436;2023-08-01T01:47:10;6.00;;;3.60;;
64641;SDS011;59936;51.490;5.436;2023-08-01T01:49:38;10.40;;;7.20;;
64641;SDS011;59936;51.490;5.436;2023-08-01T01:52:07;12.00;;;7.70;;
64641;SDS011;59936;51.490;5.436;2023-08-01T01:54:35;14.90;;;7.60;;
64641;SDS011;59936;51.490;5.436;2023-08-01T01:57:04;13.10;;;8.80;;
64641;SDS011;59936;51.490;5.436;2023-08-01T01:59:33;13.20;;;8.40;;
64641;SDS011;59936;51.490;5.436;2023-08-01T02:02:01;8.90;;;6.10;;
64641;SDS011;59936;51.490;5.436;2023-08-01T02:04:30;14.90;;;9.20;;
64641;SDS011;59936;51.490;5.436;2023-08-01T02:06:59;25.40;;;10.50;;
64641;SDS011;59936;51.490;5.436;2023-08-01T02:09:27;23.20;;;10.50;;
64641;SDS011;59936;51.490;5.436;2023-08-01T02:11:56;18.50;;;10.50;;
64641;SDS011;59936;51.490;5.436;2023-08-01T02:14:24;27.80;;;10.40;;
64641;SDS011;59936;51.490;5.436;2023-08-01T02:16:53;25.80;;;11.50;;
64641;SDS011;59936;51.490;5.436;2023-08-01T02:19:21;23.10;;;11.70;;
64641;SDS011;59936;51.490;5.436;2023-08-01T02:21:50;21.40;;;13.20;;
64641;SDS011;59936;51.490;5.436;2023-08-01T02:24:19;23.60;;;12.80;;
64641;SDS011;59936;51.490;5.436;2023-08-01T02:26:48;26.80;;;13.20;;
64641;SDS011;59936;51.490;5.436;2023-08-01T02:29:18;25.00;;;12.90;;
64641;SDS011;59936;51.490;5.436;2023-08-01T02:31:47;27.80;;;14.10;;
64641;SDS011;59936;51.490;5.436;2023-08-01T02:34:15;29.00;;;14.50;;
64641;SDS011;59936;51.490;5.436;2023-08-01T02:36:44;25.60;;;14.50;;
64641;SDS011;59936;51.490;5.436;2023-08-01T02:39:12;30.60;;;15.20;;
64641;SDS011;59936;51.490;5.436;2023-08-01T02:41:41;23.00;;;14.40;;
64641;SDS011;59936;51.490;5.436;2023-08-01T02:44:10;27.00;;;15.20;;
64641;SDS011;59936;51.490;5.436;2023-08-01T02:46:38;32.10;;;15.90;;
64641;SDS011;59936;51.490;5.436;2023-08-01T02:49:07;21.60;;;12.50;;
64641;SDS011;59936;51.490;5.436;2023-08-01T02:51:35;28.00;;;14.90;;
64641;SDS011;59936;51.490;5.436;2023-08-01T02:54:04;32.00;;;15.40;;
64641;SDS011;59936;51.490;5.436;2023-08-01T02:56:32;35.00;;;17.10;;
64641;SDS011;59936;51.490;5.436;2023-08-01T02:59:01;35.20;;;18.10;;
64641;SDS011;59936;51.490;5.436;2023-08-01T03:01:30;29.20;;;14.00;;
64641;SDS011;59936;51.490;5.436;2023-08-01T03:03:59;37.60;;;17.60;;
64641;SDS011;59936;51.490;5.436;2023-08-01T03:06:28;47.30;;;19.90;;
64641;SDS011;59936;51.490;5.436;2023-08-01T03:08:56;37.40;;;17.40;;
64641;SDS011;59936;51.490;5.436;2023-08-01T03:11:25;37.50;;;18.50;;
64641;SDS011;59936;51.490;5.436;2023-08-01T03:13:54;48.20;;;22.30;;
64641;SDS011;59936;51.490;5.436;2023-08-01T03:16:23;47.30;;;20.80;;
64641;SDS011;59936;51.490;5.436;2023-08-01T03:18:51;51.30;;;22.30;;
64641;SDS011;59936;51.490;5.436;2023-08-01T03:21:20;41.20;;;19.50;;
64641;SDS011;59936;51.490;5.436;2023-08-01T03:23:49;49.90;;;22.20;;
64641;SDS011;59936;51.490;5.436;2023-08-01T03:26:17;45.60;;;20.60;;
64641;SDS011;59936;51.490;5.436;2023-08-01T03:28:46;51.90;;;23.20;;
64641;SDS011;59936;51.490;5.436;2023-08-01T03:31:14;55.50;;;22.30;;
64641;SDS011;59936;51.490;5.436;2023-08-01T03:33:43;57.20;;;23.90;;
64641;SDS011;59936;51.490;5.436;2023-08-01T03:36:11;52.90;;;24.90;;
64641;SDS011;59936;51.490;5.436;2023-08-01T03:38:40;53.20;;;24.00;;
64641;SDS011;59936;51.490;5.436;2023-08-01T03:41:09;47.10;;;23.70;;
64641;SDS011;59936;51.490;5.436;2023-08-01T03:43:37;50.50;;;25.10;;
64641;SDS011;59936;51.490;5.436;2023-08-01T03:46:07;55.00;;;25.50;;
64641;SDS011;59936;51.490;5.436;2023-08-01T03:48:35;52.50;;;24.60;;
64641;SDS011;59936;51.490;5.436;2023-08-01T03:51:04;58.60;;;27.50;;
64641;SDS011;59936;51.490;5.436;2023-08-01T03:53:33;28.60;;;13.70;;
64641;SDS011;59936;51.490;5.436;2023-08-01T03:56:01;51.10;;;25.60;;
64641;SDS011;59936;51.490;5.436;2023-08-01T03:58:30;58.40;;;26.50;;
64641;SDS011;59936;51.490;5.436;2023-08-01T04:00:58;51.20;;;25.80;;
64641;SDS011;59936;51.490;5.436;2023-08-01T04:03:27;60.30;;;26.70;;
64641;SDS011;59936;51.490;5.436;2023-08-01T04:05:55;53.70;;;25.30;;
64641;SDS011;59936;51.490;5.436;2023-08-01T04:08:24;54.30;;;26.10;;
64641;SDS011;59936;51.490;5.436;2023-08-01T04:10:53;57.60;;;26.40;;
64641;SDS011;59936;51.490;5.436;2023-08-01T04:13:21;52.10;;;25.50;;
64641;SDS011;59936;51.490;5.436;2023-08-01T04:15:50;49.40;;;27.50;;
64641;SDS011;59936;51.490;5.436;2023-08-01T04:18:18;43.70;;;24.40;;
64641;SDS011;59936;51.490;5.436;2023-08-01T04:20:47;56.30;;;25.40;;
64641;SDS011;59936;51.490;5.436;2023-08-01T04:23:16;50.70;;;24.30;;
64641;SDS011;59936;51.490;5.436;2023-08-01T04:25:44;44.50;;;23.00;;
64641;SDS011;59936;51.490;5.436;2023-08-01T04:28:13;55.20;;;24.80;;
64641;SDS011;59936;51.490;5.436;2023-08-01T04:30:42;48.50;;;21.60;;
64641;SDS011;59936;51.490;5.436;2023-08-01T04:33:20;47.40;;;22.40;;
64641;SDS011;59936;51.490;5.436;2023-08-01T04:35:48;50.20;;;24.90;;
64641;SDS011;59936;51.490;5.436;2023-08-01T04:38:17;47.00;;;24.30;;
64641;SDS011;59936;51.490;5.436;2023-08-01T04:40:48;57.10;;;25.60;;
64641;SDS011;59936;51.490;5.436;2023-08-01T04:43:17;62.50;;;27.30;;
64641;SDS011;59936;51.490;5.436;2023-08-01T04:45:46;49.80;;;25.00;;
64641;SDS011;59936;51.490;5.436;2023-08-01T04:48:14;52.30;;;24.80;;
64641;SDS011;59936;51.490;5.436;2023-08-01T04:50:43;49.30;;;24.60;;
64641;SDS011;59936;51.490;5.436;2023-08-01T04:53:13;51.10;;;25.60;;
64641;SDS011;59936;51.490;5.436;2023-08-01T04:55:41;58.00;;;25.90;;
64641;SDS011;59936;51.490;5.436;2023-08-01T04:58:10;43.50;;;23.80;;
64641;SDS011;59936;51.490;5.436;2023-08-01T05:00:40;46.50;;;23.70;;
64641;SDS011;59936;51.490;5.436;2023-08-01T05:03:10;45.50;;;23.60;;
64641;SDS011;59936;51.490;5.436;2023-08-01T05:05:38;46.50;;;23.20;;
64641;SDS011;59936;51.490;5.436;2023-08-01T05:08:07;39.10;;;21.90;;
64641;SDS011;59936;51.490;5.436;2023-08-01T05:10:36;38.50;;;20.40;;
64641;SDS011;59936;51.490;5.436;2023-08-01T05:13:05;45.10;;;23.50;;
64641;SDS011;59936;51.490;5.436;2023-08-01T05:15:34;39.60;;;22.40;;
64641;SDS011;59936;51.490;5.436;2023-08-01T05:18:03;28.50;;;20.00;;
64641;SDS011;59936;51.490;5.436;2023-08-01T05:20:31;36.00;;;20.20;;
64641;SDS011;59936;51.490;5.436;2023-08-01T05:23:00;32.50;;;19.40;;
64641;SDS011;59936;51.490;5.436;2023-08-01T05:25:28;30.00;;;19.70;;
64641;SDS011;59936;51.490;5.436;2023-08-01T05:27:57;31.90;;;20.50;;
64641;SDS011;59936;51.490;5.436;2023-08-01T05:30:25;29.70;;;16.90;;
64641;SDS011;59936;51.490;5.436;2023-08-01T05:32:54;40.20;;;21.80;;
64641;SDS011;59936;51.490;5.436;2023-08-01T05:35:23;34.50;;;21.60;;
64641;SDS011;59936;51.490;5.436;2023-08-01T05:37:51;33.50;;;20.10;;
64641;SDS011;59936;51.490;5.436;2023-08-01T05:40:20;36.40;;;20.50;;
64641;SDS011;59936;51.490;5.436;2023-08-01T05:42:48;33.20;;;21.00;;
64641;SDS011;59936;51.490;5.436;2023-08-01T05:45:17;41.80;;;21.00;;
64641;SDS011;59936;51.490;5.436;2023-08-01T05:47:45;32.10;;;19.90;;
64641;SDS011;59936;51.490;5.436;2023-08-01T05:50:14;38.00;;;21.70;;
64641;SDS011;59936;51.490;5.436;2023-08-01T05:52:43;34.00;;;20.60;;
64641;SDS011;59936;51.490;5.436;2023-08-01T05:55:11;30.80;;;20.20;;
64641;SDS011;59936;51.490;5.436;2023-08-01T05:57:40;34.80;;;18.80;;
64641;SDS011;59936;51.490;5.436;2023-08-01T06:00:09;36.90;;;19.90;;
64641;SDS011;59936;51.490;5.436;2023-08-01T06:02:38;39.00;;;20.00;;
64641;SDS011;59936;51.490;5.436;2023-08-01T06:05:07;32.50;;;19.10;;
64641;SDS011;59936;51.490;5.436;2023-08-01T06:07:35;32.80;;;17.70;;
64641;SDS011;59936;51.490;5.436;2023-08-01T06:10:04;35.40;;;18.90;;
64641;SDS011;59936;51.490;5.436;2023-08-01T06:12:33;22.00;;;14.40;;
64641;SDS011;59936;51.490;5.436;2023-08-01T06:15:02;29.30;;;18.70;;
64641;SDS011;59936;51.490;5.436;2023-08-01T06:17:31;24.70;;;16.70;;
64641;SDS011;59936;51.490;5.436;2023-08-01T06:20:00;31.00;;;17.30;;
64641;SDS011;59936;51.490;5.436;2023-08-01T06:22:28;26.70;;;16.80;;
64641;SDS011;59936;51.490;5.436;2023-08-01T06:24:57;24.20;;;16.70;;
64641;SDS011;59936;51.490;5.436;2023-08-01T06:27:25;26.40;;;17.50;;
64641;SDS011;59936;51.490;5.436;2023-08-01T06:29:54;31.80;;;18.60;;
64641;SDS011;59936;51.490;5.436;2023-08-01T06:32:22;27.90;;;18.90;;
64641;SDS011;59936;51.490;5.436;2023-08-01T06:34:51;31.50;;;17.50;;
64641;SDS011;59936;51.490;5.436;2023-08-01T06:37:20;29.90;;;18.80;;
64641;SDS011;59936;51.490;5.436;2023-08-01T06:39:48;31.50;;;20.80;;
64641;SDS011;59936;51.490;5.436;2023-08-01T06:42:17;29.20;;;19.50;;
64641;SDS011;59936;51.490;5.436;2023-08-01T06:44:46;29.90;;;19.60;;
64641;SDS011;59936;51.490;5.436;2023-08-01T06:47:14;28.85;;;17.20;;
64641;SDS011;59936;51.490;5.436;2023-08-01T06:49:43;33.40;;;19.30;;
64641;SDS011;59936;51.490;5.436;2023-08-01T06:52:12;24.80;;;16.00;;
64641;SDS011;59936;51.490;5.436;2023-08-01T06:54:40;11.10;;;9.10;;
64641;SDS011;59936;51.490;5.436;2023-08-01T06:57:09;22.30;;;15.30;;
64641;SDS011;59936;51.490;5.436;2023-08-01T06:59:37;26.80;;;15.50;;
64641;SDS011;59936;51.490;5.436;2023-08-01T07:02:06;21.80;;;15.60;;
64641;SDS011;59936;51.490;5.436;2023-08-01T07:04:35;22.40;;;14.30;;
64641;SDS011;59936;51.490;5.436;2023-08-01T07:07:03;20.60;;;13.50;;
64641;SDS011;59936;51.490;5.436;2023-08-01T07:09:32;20.80;;;14.30;;
64641;SDS011;59936;51.490;5.436;2023-08-01T07:12:00;17.50;;;13.00;;
64641;SDS011;59936;51.490;5.436;2023-08-01T07:14:29;25.30;;;13.90;;
64641;SDS011;59936;51.490;5.436;2023-08-01T07:16:57;19.00;;;12.90;;
64641;SDS011;59936;51.490;5.436;2023-08-01T07:19:26;17.10;;;11.80;;
64641;SDS011;59936;51.490;5.436;2023-08-01T07:21:55;18.80;;;11.10;;
64641;SDS011;59936;51.490;5.436;2023-08-01T07:24:23;17.20;;;9.20;;
64641;SDS011;59936;51.490;5.436;2023-08-01T07:26:52;17.60;;;10.05;;
64641;SDS011;59936;51.490;5.436;2023-08-01T07:29:20;15.70;;;10.80;;
64641;SDS011;59936;51.490;5.436;2023-08-01T07:31:49;17.80;;;10.70;;
64641;SDS011;59936;51.490;5.436;2023-08-01T07:34:17;6.50;;;4.40;;
64641;SDS011;59936;51.490;5.436;2023-08-01T07:36:47;14.50;;;9.70;;
64641;SDS011;59936;51.490;5.436;2023-08-01T07:39:16;17.50;;;9.90;;
64641;SDS011;59936;51.490;5.436;2023-08-01T07:41:45;17.50;;;9.60;;
64641;SDS011;59936;51.490;5.436;2023-08-01T07:44:13;4.90;;;4.45;;
64641;SDS011;59936;51.490;5.436;2023-08-01T07:46:42;14.10;;;9.70;;
64641;SDS011;59936;51.490;5.436;2023-08-01T07:49:10;9.50;;;6.50;;
64641;SDS011;59936;51.490;5.436;2023-08-01T07:51:39;18.30;;;8.80;;
64641;SDS011;59936;51.490;5.436;2023-08-01T07:54:08;12.70;;;8.20;;
64641;SDS011;59936;51.490;5.436;2023-08-01T07:56:36;10.10;;;7.10;;
64641;SDS011;59936;51.490;5.436;2023-08-01T07:59:05;11.60;;;6.30;;
64641;SDS011;59936;51.490;5.436;2023-08-01T08:01:33;11.60;;;4.70;;
64641;SDS011;59936;51.490;5.436;2023-08-01T08:04:02;10.20;;;6.40;;
64641;SDS011;59936;51.490;5.436;2023-08-01T08:06:30;9.40;;;5.20;;
64641;SDS011;59936;51.490;5.436;2023-08-01T08:08:59;10.50;;;5.20;;
64641;SDS011;59936;51.490;5.436;2023-08-01T08:11:28;10.00;;;4.60;;
64641;SDS011;59936;51.490;5.436;2023-08-01T08:13:56;8.70;;;4.90;;
64641;SDS011;59936;51.490;5.436;2023-08-01T08:16:25;6.20;;;4.10;;
64641;SDS011;59936;51.490;5.436;2023-08-01T08:18:53;9.80;;;5.30;;
64641;SDS011;59936;51.490;5.436;2023-08-01T08:21:22;8.30;;;5.10;;
64641;SDS011;59936;51.490;5.436;2023-08-01T08:23:51;5.10;;;3.40;;
64641;SDS011;59936;51.490;5.436;2023-08-01T08:26:19;9.30;;;5.20;;
64641;SDS011;59936;51.490;5.436;2023-08-01T08:28:48;6.60;;;4.50;;
64641;SDS011;59936;51.490;5.436;2023-08-01T08:31:16;6.80;;;4.80;;
64641;SDS011;59936;51.490;5.436;2023-08-01T08:33:45;7.60;;;4.70;;
64641;SDS011;59936;51.490;5.436;2023-08-01T08:36:14;7.00;;;5.40;;
64641;SDS011;59936;51.490;5.436;2023-08-01T08:38:42;6.80;;;4.10;;
64641;SDS011;59936;51.490;5.436;2023-08-01T08:41:13;7.20;;;4.30;;
64641;SDS011;59936;51.490;5.436;2023-08-01T08:43:54;5.40;;;3.80;;
64641;SDS011;59936;51.490;5.436;2023-08-01T08:46:28;8.30;;;4.60;;
64641;SDS011;59936;51.490;5.436;2023-08-01T08:48:58;10.60;;;4.60;;
64641;SDS011;59936;51.490;5.436;2023-08-01T08:51:28;9.40;;;4.80;;
64641;SDS011;59936;51.490;5.436;2023-08-01T08:53:57;8.00;;;4.40;;
64641;SDS011;59936;51.490;5.436;2023-08-01T08:56:28;6.20;;;4.20;;
64641;SDS011;59936;51.490;5.436;2023-08-01T08:58:57;5.80;;;3.60;;
64641;SDS011;59936;51.490;5.436;2023-08-01T09:01:27;5.70;;;3.60;;
64641;SDS011;59936;51.490;5.436;2023-08-01T09:03:56;8.50;;;4.10;;
64641;SDS011;59936;51.490;5.436;2023-08-01T09:06:28;7.90;;;4.00;;
64641;SDS011;59936;51.490;5.436;2023-08-01T09:09:16;6.60;;;3.60;;
64641;SDS011;59936;51.490;5.436;2023-08-01T09:11:46;7.75;;;4.35;;
64641;SDS011;59936;51.490;5.436;2023-08-01T09:14:18;8.80;;;4.20;;
64641;SDS011;59936;51.490;5.436;2023-08-01T09:16:48;9.80;;;4.30;;
64641;SDS011;59936;51.490;5.436;2023-08-01T09:19:18;8.10;;;4.50;;
64641;SDS011;59936;51.490;5.436;2023-08-01T09:21:49;4.90;;;3.20;;
64641;SDS011;59936;51.490;5.436;2023-08-01T09:24:20;5.00;;;3.90;;
64641;SDS011;59936;51.490;5.436;2023-08-01T09:26:50;5.40;;;3.00;;
64641;SDS011;59936;51.490;5.436;2023-08-01T09:29:19;7.50;;;3.80;;
64641;SDS011;59936;51.490;5.436;2023-08-01T09:31:48;7.50;;;3.40;;
64641;SDS011;59936;51.490;5.436;2023-08-01T09:34:18;6.60;;;4.20;;
64641;SDS011;59936;51.490;5.436;2023-08-01T09:37:01;6.00;;;3.30;;
64641;SDS011;59936;51.490;5.436;2023-08-01T09:39:30;10.20;;;3.80;;
64641;SDS011;59936;51.490;5.436;2023-08-01T09:41:59;5.20;;;3.70;;
64641;SDS011;59936;51.490;5.436;2023-08-01T09:44:29;2.40;;;1.80;;
64641;SDS011;59936;51.490;5.436;2023-08-01T09:47:00;7.30;;;3.30;;
64641;SDS011;59936;51.490;5.436;2023-08-01T09:49:33;5.00;;;2.95;;
64641;SDS011;59936;51.490;5.436;2023-08-01T09:52:02;4.70;;;2.40;;
64641;SDS011;59936;51.490;5.436;2023-08-01T09:54:31;5.90;;;2.50;;
64641;SDS011;59936;51.490;5.436;2023-08-01T09:57:01;7.10;;;2.10;;
64641;SDS011;59936;51.490;5.436;2023-08-01T09:59:31;5.30;;;2.40;;
64641;SDS011;59936;51.490;5.436;2023-08-01T10:02:01;4.30;;;2.40;;
64641;SDS011;59936;51.490;5.436;2023-08-01T10:04:40;5.40;;;2.80;;
64641;SDS011;59936;51.490;5.436;2023-08-01T10:07:13;3.60;;;2.40;;
64641;SDS011;59936;51.490;5.436;2023-08-01T10:09:48;8.30;;;3.20;;
64641;SDS011;59936;51.490;5.436;2023-08-01T10:12:18;5.70;;;2.20;;
64641;SDS011;59936;51.490;5.436;2023-08-01T10:14:47;6.50;;;2.70;;
64641;SDS011;59936;51.490;5.436;2023-08-01T10:17:17;6.30;;;3.20;;
64641;SDS011;59936;51.490;5.436;2023-08-01T10:19:49;6.70;;;3.40;;
64641;SDS011;59936;51.490;5.436;2023-08-01T10:22:18;7.30;;;3.20;;
64641;SDS011;59936;51.490;5.436;2023-08-01T10:24:47;5.40;;;2.50;;
64641;SDS011;59936;51.490;5.436;2023-08-01T10:27:21;4.00;;;2.50;;
64641;SDS011;59936;51.490;5.436;2023-08-01T10:30:00;7.60;;;3.80;;
64641;SDS011;59936;51.490;5.436;2023-08-01T10:32:35;10.80;;;3.50;;
64641;SDS011;59936;51.490;5.436;2023-08-01T10:35:05;6.05;;;2.80;;
64641;SDS011;59936;51.490;5.436;2023-08-01T10:37:41;10.90;;;3.60;;
64641;SDS011;59936;51.490;5.436;2023-08-01T10:40:15;7.90;;;4.00;;
64641;SDS011;59936;51.490;5.436;2023-08-01T10:42:44;9.00;;;3.80;;
64641;SDS011;59936;51.490;5.436;2023-08-01T10:45:20;9.90;;;4.20;;
64641;SDS011;59936;51.490;5.436;2023-08-01T10:47:51;12.50;;;4.40;;
64641;SDS011;59936;51.490;5.436;2023-08-01T10:50:20;8.50;;;4.20;;
64641;SDS011;59936;51.490;5.436;2023-08-01T10:52:48;11.50;;;4.40;;
64641;SDS011;59936;51.490;5.436;2023-08-01T10:55:17;12.20;;;4.90;;
64641;SDS011;59936;51.490;5.436;2023-08-01T10:57:49;12.90;;;4.70;;
64641;SDS011;59936;51.490;5.436;2023-08-01T11:00:18;10.60;;;4.60;;
64641;SDS011;59936;51.490;5.436;2023-08-01T11:02:50;6.70;;;3.10;;
64641;SDS011;59936;51.490;5.436;2023-08-01T11:05:20;7.60;;;3.50;;
64641;SDS011;59936;51.490;5.436;2023-08-01T11:07:59;9.40;;;4.10;;
64641;SDS011;59936;51.490;5.436;2023-08-01T11:10:31;8.90;;;4.00;;
64641;SDS011;59936;51.490;5.436;2023-08-01T11:13:00;9.10;;;3.00;;
64641;SDS011;59936;51.490;5.436;2023-08-01T11:15:30;9.20;;;4.00;;
64641;SDS011;59936;51.490;5.436;2023-08-01T11:17:59;4.70;;;2.80;;
64641;SDS011;59936;51.490;5.436;2023-08-01T11:20:27;9.20;;;3.60;;
64641;SDS011;59936;51.490;5.436;2023-08-01T11:22:59;7.30;;;3.60;;
64641;SDS011;59936;51.490;5.436;2023-08-01T11:25:39;8.70;;;4.30;;
64641;SDS011;59936;51.490;5.436;2023-08-01T11:28:10;7.60;;;4.10;;
64641;SDS011;59936;51.490;5.436;2023-08-01T11:30:44;11.30;;;3.40;;
64641;SDS011;59936;51.490;5.436;2023-08-01T11:33:19;5.30;;;3.40;;
64641;SDS011;59936;51.490;5.436;2023-08-01T11:35:52;5.50;;;3.10;;
64641;SDS011;59936;51.490;5.436;2023-08-01T11:38:23;8.10;;;3.20;;
64641;SDS011;59936;51.490;5.436;2023-08-01T11:40:54;7.90;;;3.50;;
64641;SDS011;59936;51.490;5.436;2023-08-01T11:43:25;8.50;;;3.50;;
64641;SDS011;59936;51.490;5.436;2023-08-01T11:45:56;13.90;;;3.60;;
64641;SDS011;59936;51.490;5.436;2023-08-01T11:48:25;7.80;;;3.70;;
64641;SDS011;59936;51.490;5.436;2023-08-01T11:50:57;5.30;;;3.00;;
64641;SDS011;59936;51.490;5.436;2023-08-01T11:55:59;4.55;;;2.45;;
64641;SDS011;59936;51.490;5.436;2023-08-01T11:58:41;5.30;;;2.80;;
64641;SDS011;59936;51.490;5.436;2023-08-01T12:01:11;8.40;;;3.10;;
64641;SDS011;59936;51.490;5.436;2023-08-01T12:03:44;5.40;;;3.00;;
64641;SDS011;59936;51.490;5.436;2023-08-01T12:06:24;2.50;;;2.00;;
64641;SDS011;59936;51.490;5.436;2023-08-01T12:08:52;5.60;;;3.00;;
64641;SDS011;59936;51.490;5.436;2023-08-01T12:11:22;3.80;;;2.30;;
64641;SDS011;59936;51.490;5.436;2023-08-01T12:14:11;7.80;;;2.60;;
64641;SDS011;59936;51.490;5.436;2023-08-01T12:16:44;4.80;;;1.90;;
64641;SDS011;59936;51.490;5.436;2023-08-01T12:19:18;4.00;;;2.30;;
64641;SDS011;59936;51.490;5.436;2023-08-01T12:21:48;2.70;;;2.00;;
64641;SDS011;59936;51.490;5.436;2023-08-01T12:24:18;4.20;;;1.80;;
64641;SDS011;59936;51.490;5.436;2023-08-01T12:26:48;4.40;;;2.10;;
64641;SDS011;59936;51.490;5.436;2023-08-01T12:29:16;5.90;;;2.20;;
64641;SDS011;59936;51.490;5.436;2023-08-01T12:31:49;5.10;;;2.20;;
64641;SDS011;59936;51.490;5.436;2023-08-01T12:34:17;5.65;;;2.60;;
64641;SDS011;59936;51.490;5.436;2023-08-01T12:36:46;1.60;;;1.30;;
64641;SDS011;59936;51.490;5.436;2023-08-01T12:39:14;4.50;;;2.10;;
64641;SDS011;59936;51.490;5.436;2023-08-01T12:41:43;6.40;;;2.40;;
64641;SDS011;59936;51.490;5.436;2023-08-01T12:44:12;4.10;;;2.40;;
64641;SDS011;59936;51.490;5.436;2023-08-01T12:46:40;4.70;;;2.30;;
64641;SDS011;59936;51.490;5.436;2023-08-01T12:49:13;3.70;;;2.30;;
64641;SDS011;59936;51.490;5.436;2023-08-01T12:51:42;5.50;;;2.60;;
64641;SDS011;59936;51.490;5.436;2023-08-01T12:54:10;3.50;;;1.90;;
64641;SDS011;59936;51.490;5.436;2023-08-01T12:56:39;4.20;;;2.20;;
64641;SDS011;59936;51.490;5.436;2023-08-01T12:59:08;4.90;;;2.40;;
64641;SDS011;59936;51.490;5.436;2023-08-01T13:01:36;2.80;;;1.80;;
64641;SDS011;59936;51.490;5.436;2023-08-01T13:04:05;4.90;;;2.15;;
64641;SDS011;59936;51.490;5.436;2023-08-01T13:06:33;4.60;;;2.20;;
64641;SDS011;59936;51.490;5.436;2023-08-01T13:09:02;4.30;;;2.00;;
64641;SDS011;59936;51.490;5.436;2023-08-01T13:11:30;3.30;;;1.80;;
64641;SDS011;59936;51.490;5.436;2023-08-01T13:14:03;2.30;;;1.60;;
64641;SDS011;59936;51.490;5.436;2023-08-01T13:16:31;7.05;;;1.95;;
64641;SDS011;59936;51.490;5.436;2023-08-01T13:19:00;5.70;;;2.70;;
64641;SDS011;59936;51.490;5.436;2023-08-01T13:21:28;4.30;;;2.80;;
64641;SDS011;59936;51.490;5.436;2023-08-01T13:23:57;2.10;;;1.20;;
64641;SDS011;59936;51.490;5.436;2023-08-01T13:26:26;3.80;;;1.80;;
64641;SDS011;59936;51.490;5.436;2023-08-01T13:28:54;3.50;;;1.90;;
64641;SDS011;59936;51.490;5.436;2023-08-01T13:31:23;2.40;;;1.60;;
64641;SDS011;59936;51.490;5.436;2023-08-01T13:33:51;2.80;;;1.50;;
64641;SDS011;59936;51.490;5.436;2023-08-01T13:36:20;6.80;;;1.90;;
64641;SDS011;59936;51.490;5.436;2023-08-01T13:38:49;4.20;;;1.40;;
64641;SDS011;59936;51.490;5.436;2023-08-01T13:41:18;6.70;;;2.60;;
64641;SDS011;59936;51.490;5.436;2023-08-01T13:43:47;3.70;;;2.00;;
64641;SDS011;59936;51.490;5.436;2023-08-01T13:46:16;5.30;;;2.20;;
64641;SDS011;59936;51.490;5.436;2023-08-01T13:48:46;11.10;;;2.50;;
64641;SDS011;59936;51.490;5.436;2023-08-01T13:51:15;5.60;;;2.45;;
64641;SDS011;59936;51.490;5.436;2023-08-01T13:53:44;10.20;;;2.00;;
64641;SDS011;59936;51.490;5.436;2023-08-01T13:56:12;3.90;;;1.90;;
64641;SDS011;59936;51.490;5.436;2023-08-01T13:58:41;4.40;;;2.00;;
64641;SDS011;59936;51.490;5.436;2023-08-01T14:01:10;3.00;;;1.70;;
64641;SDS011;59936;51.490;5.436;2023-08-01T14:03:39;6.30;;;2.10;;
64641;SDS011;59936;51.490;5.436;2023-08-01T14:06:08;1.60;;;1.20;;
64641;SDS011;59936;51.490;5.436;2023-08-01T14:08:40;2.75;;;1.70;;
64641;SDS011;59936;51.490;5.436;2023-08-01T14:11:09;5.70;;;1.80;;
64641;SDS011;59936;51.490;5.436;2023-08-01T14:13:43;3.70;;;1.80;;
64641;SDS011;59936;51.490;5.436;2023-08-01T14:16:12;6.20;;;2.10;;
64641;SDS011;59936;51.490;5.436;2023-08-01T14:18:41;1.50;;;1.30;;
64641;SDS011;59936;51.490;5.436;2023-08-01T14:21:10;3.20;;;1.50;;
64641;SDS011;59936;51.490;5.436;2023-08-01T14:23:38;3.30;;;1.70;;
64641;SDS011;59936;51.490;5.436;2023-08-01T14:26:07;2.60;;;1.60;;
64641;SDS011;59936;51.490;5.436;2023-08-01T14:28:41;2.80;;;1.20;;
64641;SDS011;59936;51.490;5.436;2023-08-01T14:31:15;3.60;;;1.40;;
64641;SDS011;59936;51.490;5.436;2023-08-01T14:33:48;2.40;;;1.40;;
64641;SDS011;59936;51.490;5.436;2023-08-01T14:36:21;3.50;;;1.80;;
64641;SDS011;59936;51.490;5.436;2023-08-01T14:38:53;2.70;;;1.40;;
64641;SDS011;59936;51.490;5.436;2023-08-01T14:41:28;2.70;;;1.30;;
64641;SDS011;59936;51.490;5.436;2023-08-01T14:43:59;1.50;;;0.80;;
64641;SDS011;59936;51.490;5.436;2023-08-01T14:46:28;3.95;;;1.60;;
64641;SDS011;59936;51.490;5.436;2023-08-01T14:48:56;1.50;;;0.90;;
64641;SDS011;59936;51.490;5.436;2023-08-01T14:51:31;2.70;;;1.80;;
64641;SDS011;59936;51.490;5.436;2023-08-01T14:54:00;2.25;;;1.30;;
64641;SDS011;59936;51.490;5.436;2023-08-01T14:56:29;3.80;;;1.60;;